createdAt,value
2018-02-09T00:00:07.596Z,99.90
2018-02-09T00:02:35.175Z,91.57
2018-02-09T00:05:02.745Z,88.43
2018-02-09T00:07:30.421Z,94.57
2018-02-09T00:09:58.021Z,86.67
2018-02-09T00:12:26.391Z,93.93
2018-02-09T00:14:53.970Z,94.60
2018-02-09T00:17:21.569Z,92.03
2018-02-09T00:19:49.902Z,91.30
2018-02-09T00:22:17.519Z,86.77
2018-02-09T00:24:45.090Z,84.67
2018-02-09T00:27:12.700Z,87.13
2018-02-09T00:29:40.288Z,88.53
2018-02-09T00:32:07.882Z,98.20
2018-02-09T00:34:35.554Z,86.73
2018-02-09T00:37:03.134Z,84.50
2018-02-09T00:39:30.703Z,86.63
2018-02-09T00:41:58.279Z,85.10
2018-02-09T00:44:25.843Z,90.67
2018-02-09T00:46:53.416Z,95.17
2018-02-09T00:49:21.001Z,89.00
2018-02-09T00:51:48.563Z,90.53
2018-02-09T00:54:16.173Z,101.67
2018-02-09T00:56:44.606Z,99.27
2018-02-09T00:59:12.284Z,91.73
2018-02-09T01:01:40.133Z,93.07
2018-02-09T01:04:07.788Z,87.53
2018-02-09T01:06:36.225Z,89.63
2018-02-09T01:09:03.867Z,90.13
2018-02-09T01:11:32.311Z,88.63
2018-02-09T01:13:59.907Z,88.10
2018-02-09T01:16:27.522Z,93.97
2018-02-09T01:18:55.109Z,82.70
2018-02-09T01:21:22.782Z,98.80
2018-02-09T01:23:50.383Z,102.07
2018-02-09T01:26:17.961Z,101.77
2018-02-09T01:28:45.574Z,95.77
2018-02-09T01:31:13.157Z,97.47
2018-02-09T01:33:40.752Z,103.47
2018-02-09T01:36:08.326Z,105.13
2018-02-09T01:38:35.905Z,114.33
2018-02-09T01:41:03.481Z,104.33
2018-02-09T01:43:31.049Z,107.43
2018-02-09T01:45:58.656Z,110.80
2018-02-09T01:48:26.995Z,108.53
2018-02-09T01:50:54.582Z,113.40
2018-02-09T01:53:22.158Z,109.00
2018-02-09T01:55:49.759Z,110.77
2018-02-09T01:58:17.334Z,121.73
2018-02-09T02:00:45.698Z,111.53
2018-02-09T02:03:13.294Z,125.77
2018-02-09T02:05:40.899Z,125.30
2018-02-09T02:08:08.501Z,110.73
2018-02-09T02:10:36.135Z,107.23
2018-02-09T02:13:03.730Z,100.70
2018-02-09T02:15:31.366Z,108.00
2018-02-09T02:17:58.977Z,100.47
2018-02-09T02:20:26.585Z,90.07
2018-02-09T02:22:54.150Z,98.13
2018-02-09T02:25:21.746Z,97.13
2018-02-09T02:27:50.095Z,90.27
2018-02-09T02:30:17.684Z,97.53
2018-02-09T02:32:45.603Z,97.27
2018-02-09T02:35:14.043Z,94.73
2018-02-09T02:37:41.645Z,95.43
2018-02-09T02:40:09.230Z,108.70
2018-02-09T02:42:36.823Z,100.73
2018-02-09T02:45:05.156Z,98.57
2018-02-09T02:47:32.756Z,97.37
2018-02-09T02:50:00.381Z,118.10
2018-02-09T02:52:27.995Z,112.20
2018-02-09T02:54:55.595Z,102.37
2018-02-09T02:57:23.970Z,91.70
2018-02-09T02:59:51.540Z,99.70
2018-02-09T03:02:19.135Z,101.27
2018-02-09T03:04:46.950Z,103.20
2018-02-09T03:07:14.542Z,97.87
2018-02-09T03:09:42.126Z,93.33
2018-02-09T03:12:09.732Z,94.23
2018-02-09T03:14:37.313Z,100.67
2018-02-09T03:17:04.943Z,97.90
2018-02-09T03:19:32.538Z,91.00
2018-02-09T03:22:00.934Z,91.23
2018-02-09T03:24:29.289Z,93.80
2018-02-09T03:26:56.925Z,101.27
2018-02-09T03:29:24.516Z,93.93
2018-02-09T03:31:52.138Z,98.23
2018-02-09T03:34:20.485Z,91.80
2018-02-09T03:36:48.066Z,90.77
2018-02-09T03:39:15.662Z,98.40
2018-02-09T03:41:43.271Z,99.13
2018-02-09T03:44:10.846Z,101.80
2018-02-09T03:46:38.548Z,106.27
2018-02-09T03:49:06.768Z,112.37
2018-02-09T03:51:34.364Z,92.57
2018-02-09T03:54:01.974Z,93.30
2018-02-09T03:56:29.546Z,98.43
2018-02-09T03:58:57.166Z,112.27
2018-02-09T04:01:25.506Z,105.87
2018-02-09T04:03:53.146Z,95.47
2018-02-09T04:06:20.719Z,103.60
2018-02-09T04:08:48.322Z,108.03
2018-02-09T04:11:15.923Z,97.57
2018-02-09T04:13:43.568Z,103.20
2018-02-09T04:16:11.201Z,107.63
2018-02-09T04:18:39.979Z,106.67
2018-02-09T04:21:07.572Z,102.70
2018-02-09T04:23:35.950Z,106.60
2018-02-09T04:26:03.589Z,115.80
2018-02-09T04:28:31.282Z,111.97
2018-02-09T04:30:58.892Z,114.60
2018-02-09T04:33:27.365Z,108.50
2018-02-09T04:35:54.966Z,122.63
2018-02-09T04:38:22.621Z,116.17
2018-02-09T04:40:51.094Z,117.90
2018-02-09T04:43:19.496Z,118.37
2018-02-09T04:45:47.861Z,113.60
2018-02-09T04:48:15.597Z,109.07
2018-02-09T04:50:43.184Z,112.60
2018-02-09T04:53:10.818Z,117.93
2018-02-09T04:55:39.459Z,123.90
2018-02-09T04:58:07.054Z,125.83
2018-02-09T05:00:34.646Z,116.83
2018-02-09T05:03:03.070Z,112.70
2018-02-09T05:05:33.063Z,103.77
2018-02-09T05:08:01.613Z,126.40
2018-02-09T05:10:29.478Z,128.93
2018-02-09T05:12:57.085Z,120.90
2018-02-09T05:15:24.800Z,119.13
2018-02-09T05:17:53.228Z,118.30
2018-02-09T05:20:20.871Z,130.43
2018-02-09T05:22:49.230Z,123.90
2018-02-09T05:25:17.453Z,128.70
2018-02-09T05:27:45.216Z,130.87
2018-02-09T05:30:13.014Z,124.73
2018-02-09T05:32:42.520Z,127.90
2018-02-09T05:35:10.752Z,135.27
2018-02-09T05:37:40.083Z,125.50
2018-02-09T05:40:09.251Z,133.63
2018-02-09T05:42:37.400Z,125.00
2018-02-09T05:45:05.409Z,127.33
2018-02-09T05:47:33.028Z,109.60
2018-02-09T05:50:00.721Z,122.60
2018-02-09T05:52:28.370Z,128.17
2018-02-09T05:54:56.096Z,127.67
2018-02-09T05:57:23.754Z,116.23
2018-02-09T05:59:51.451Z,127.07
2018-02-09T06:02:19.899Z,124.57
2018-02-09T06:04:47.572Z,124.77
2018-02-09T06:07:15.219Z,120.97
2018-02-09T06:09:42.847Z,132.50
2018-02-09T06:12:10.482Z,124.50
2018-02-09T06:14:38.236Z,125.63
2018-02-09T06:17:06.689Z,130.10
2018-02-09T06:19:34.319Z,116.37
2018-02-09T06:22:02.024Z,125.53
2018-02-09T06:24:29.794Z,130.73
2018-02-09T06:26:57.431Z,121.70
2018-02-09T06:29:25.083Z,122.83
2018-02-09T06:31:54.722Z,132.67
2018-02-09T06:34:23.838Z,135.10
2018-02-09T06:36:51.451Z,125.93
2018-02-09T06:39:19.159Z,124.13
2018-02-09T06:41:46.800Z,130.27
2018-02-09T06:44:14.467Z,128.93
2018-02-09T06:46:42.114Z,114.90
2018-02-09T06:49:09.716Z,103.00
2018-02-09T06:51:39.884Z,116.50
2018-02-09T06:54:08.302Z,123.77
2018-02-09T06:56:35.936Z,110.57
2018-02-09T06:59:04.428Z,111.47
2018-02-09T07:01:32.179Z,116.40
2018-02-09T07:03:59.782Z,121.53
2018-02-09T07:06:27.450Z,118.20
2018-02-09T07:08:55.060Z,118.83
2018-02-09T07:11:22.681Z,121.03
2018-02-09T07:13:50.315Z,107.53
2018-02-09T07:16:17.915Z,116.20
2018-02-09T07:18:46.559Z,121.87
2018-02-09T07:21:14.932Z,115.43
2018-02-09T07:23:42.544Z,115.77
2018-02-09T07:26:10.168Z,124.67
2018-02-09T07:28:37.838Z,124.00
2018-02-09T07:31:05.493Z,123.70
2018-02-09T07:33:33.114Z,132.67
2018-02-09T07:36:00.733Z,120.97
2018-02-09T07:38:28.398Z,134.93
2018-02-09T07:40:55.995Z,117.73
2018-02-09T07:43:23.598Z,126.93
2018-02-09T07:45:52.013Z,137.37
2018-02-09T07:48:19.649Z,146.33
2018-02-09T07:50:47.288Z,148.80
2018-02-09T07:53:14.964Z,145.43
2018-02-09T07:55:42.709Z,138.03
2018-02-09T07:58:11.167Z,146.70
2018-02-09T08:00:38.807Z,137.70
2018-02-09T08:03:06.403Z,153.57
2018-02-09T08:05:34.081Z,140.20
2018-02-09T08:08:01.728Z,136.27
2018-02-09T08:10:29.423Z,135.17
2018-02-09T08:12:57.108Z,135.87
2018-02-09T08:15:24.774Z,122.30
2018-02-09T08:17:52.365Z,121.03
2018-02-09T08:20:20.038Z,130.70
2018-02-09T08:22:47.618Z,124.33
2018-02-09T08:25:15.281Z,114.60
2018-02-09T08:27:43.068Z,121.37
2018-02-09T08:30:10.663Z,125.33
2018-02-09T08:32:39.362Z,116.47
2018-02-09T08:35:07.023Z,117.07
2018-02-09T08:37:35.439Z,170.03
2018-02-09T08:40:03.033Z,144.13
2018-02-09T08:42:30.618Z,126.63
2018-02-09T08:44:58.320Z,129.13
2018-02-09T08:47:26.000Z,118.93
2018-02-09T08:49:53.589Z,114.93
2018-02-09T08:52:21.257Z,110.20
2018-02-09T08:54:49.614Z,113.27
2018-02-09T08:57:17.311Z,106.17
2018-02-09T08:59:44.910Z,112.73
2018-02-09T09:02:12.564Z,110.00
2018-02-09T09:04:40.955Z,117.93
2018-02-09T09:07:09.324Z,113.20
2018-02-09T09:09:38.859Z,111.17
2018-02-09T09:12:07.242Z,111.30
2018-02-09T09:14:34.899Z,114.20
2018-02-09T09:17:02.548Z,107.07
2018-02-09T09:19:30.166Z,105.60
2018-02-09T09:21:57.757Z,120.63
2018-02-09T09:24:26.214Z,109.40
2018-02-09T09:26:53.800Z,109.17
2018-02-09T09:29:21.455Z,103.80
2018-02-09T09:31:49.073Z,100.37
2018-02-09T09:34:17.442Z,97.47
2018-02-09T09:36:45.827Z,108.03
2018-02-09T09:39:13.563Z,88.37
2018-02-09T09:41:41.207Z,87.87
2018-02-09T09:44:09.608Z,92.67
2018-02-09T09:46:38.514Z,95.83
2018-02-09T09:49:06.871Z,102.00
2018-02-09T09:51:34.446Z,99.77
2018-02-09T09:54:02.057Z,95.07
2018-02-09T09:56:29.678Z,102.30
2018-02-09T09:58:57.275Z,93.03
2018-02-09T10:01:31.629Z,96.47
2018-02-09T10:03:59.290Z,96.47
2018-02-09T10:06:26.939Z,102.03
2018-02-09T10:08:54.529Z,103.60
2018-02-09T10:11:22.891Z,99.57
2018-02-09T10:13:50.528Z,83.73
2018-02-09T10:16:18.143Z,100.50
2018-02-09T10:18:45.783Z,88.93
2018-02-09T10:21:13.403Z,85.97
2018-02-09T10:23:40.998Z,90.03
2018-02-09T10:26:08.621Z,86.00
2018-02-09T10:28:36.241Z,89.60
2018-02-09T10:31:04.710Z,94.07
2018-02-09T10:33:32.371Z,90.33
2018-02-09T10:36:00.024Z,89.80
2018-02-09T10:38:27.713Z,94.13
2018-02-09T10:40:55.315Z,84.40
2018-02-09T10:43:23.755Z,93.57
2018-02-09T10:45:51.399Z,94.83
2018-02-09T10:48:19.020Z,86.97
2018-02-09T10:50:47.388Z,89.27
2018-02-09T10:53:15.157Z,88.70
2018-02-09T10:55:42.857Z,82.10
2018-02-09T10:58:10.538Z,76.60
2018-02-09T11:00:43.812Z,75.60
2018-02-09T11:03:11.440Z,83.87
2018-02-09T11:05:39.241Z,81.20
2018-02-09T11:08:06.921Z,78.27
2018-02-09T11:10:34.933Z,70.73
2018-02-09T11:13:08.380Z,75.40
2018-02-09T11:15:36.793Z,67.77
2018-02-09T11:18:05.150Z,74.40
2018-02-09T11:20:33.536Z,70.37
2018-02-09T11:23:01.147Z,73.00
2018-02-09T11:25:28.783Z,74.27
2018-02-09T11:27:56.461Z,69.33
2018-02-09T11:30:24.099Z,75.77
2018-02-09T11:32:51.711Z,75.07
2018-02-09T11:35:19.357Z,76.33
2018-02-09T11:37:47.104Z,75.17
2018-02-09T11:40:14.682Z,71.10
2018-02-09T11:42:43.123Z,75.67
2018-02-09T11:45:10.803Z,65.73
2018-02-09T11:47:39.911Z,62.83
2018-02-09T11:50:07.569Z,68.17
2018-02-09T11:52:35.182Z,77.23
2018-02-09T11:55:02.800Z,66.87
2018-02-09T11:57:30.571Z,71.13
2018-02-09T11:59:58.242Z,67.30
2018-02-09T12:02:25.983Z,69.50
2018-02-09T12:04:54.415Z,69.47
2018-02-09T12:07:22.123Z,70.77
2018-02-09T12:09:49.757Z,63.80
2018-02-09T12:12:17.452Z,65.53
2018-02-09T12:14:45.071Z,66.20
2018-02-09T12:17:12.722Z,67.10
2018-02-09T12:19:40.358Z,64.17
2018-02-09T12:22:08.058Z,71.40
2018-02-09T12:24:35.728Z,67.80
2018-02-09T12:27:03.360Z,69.87
2018-02-09T12:29:30.977Z,69.30
2018-02-09T12:31:58.630Z,67.90
2018-02-09T12:34:27.331Z,62.33
2018-02-09T12:36:54.999Z,70.23
2018-02-09T12:39:22.575Z,70.43
2018-02-09T12:41:50.203Z,68.27
2018-02-09T12:44:18.642Z,69.60
2018-02-09T12:46:46.227Z,58.93
2018-02-09T12:49:13.894Z,66.43
2018-02-09T12:51:41.537Z,62.33
2018-02-09T12:54:09.162Z,70.60
2018-02-09T12:56:36.787Z,77.80
2018-02-09T12:59:04.465Z,77.20
2018-02-09T13:01:32.053Z,75.00
2018-02-09T13:03:59.645Z,75.90
2018-02-09T13:06:27.347Z,75.03
2018-02-09T13:08:55.991Z,79.03
2018-02-09T13:11:23.653Z,78.37
2018-02-09T13:13:51.324Z,75.30
2018-02-09T13:16:18.985Z,73.13
2018-02-09T13:18:50.348Z,71.73
2018-02-09T13:21:17.988Z,75.37
2018-02-09T13:23:57.540Z,76.63
2018-02-09T13:26:25.216Z,77.63
2018-02-09T13:28:57.580Z,68.53
2018-02-09T13:31:25.163Z,77.43
2018-02-09T13:33:52.839Z,74.47
2018-02-09T13:36:32.374Z,75.23
2018-02-09T13:39:00.113Z,66.47
2018-02-09T13:41:27.775Z,69.77
2018-02-09T13:43:56.207Z,82.77
2018-02-09T13:46:24.030Z,69.73
2018-02-09T13:48:51.799Z,71.00
2018-02-09T13:51:19.396Z,66.43
2018-02-09T13:53:47.834Z,66.23
2018-02-09T13:56:16.372Z,59.80
2018-02-09T13:58:44.512Z,64.80
2018-02-09T14:01:12.146Z,61.83
2018-02-09T14:03:40.674Z,68.17
2018-02-09T14:06:08.293Z,62.90
2018-02-09T14:08:35.898Z,59.47
2018-02-09T14:11:03.502Z,61.43
2018-02-09T14:13:31.114Z,64.83
2018-02-09T14:15:59.506Z,56.50
2018-02-09T14:18:27.855Z,67.57
2018-02-09T14:20:55.451Z,59.10
2018-02-09T14:23:23.050Z,62.73
2018-02-09T14:25:50.683Z,63.83
2018-02-09T14:28:19.334Z,60.63
2018-02-09T14:30:49.565Z,67.73
2018-02-09T14:33:19.292Z,66.47
2018-02-09T14:35:46.992Z,68.23
2018-02-09T14:38:14.862Z,68.33
2018-02-09T14:40:42.461Z,71.00
2018-02-09T14:43:10.125Z,73.87
2018-02-09T14:45:38.732Z,75.27
2018-02-09T14:48:06.372Z,79.53
2018-02-09T14:50:33.951Z,79.37
2018-02-09T14:53:02.649Z,73.37
2018-02-09T14:55:31.166Z,77.87
2018-02-09T14:58:00.075Z,79.03
2018-02-09T15:00:29.163Z,78.17
2018-02-09T15:02:58.336Z,80.43
2018-02-09T15:05:26.832Z,81.67
2018-02-09T15:07:55.962Z,76.37
2018-02-09T15:10:25.118Z,80.20
2018-02-09T15:12:53.308Z,84.43
2018-02-09T15:15:22.591Z,81.50
2018-02-09T15:17:50.405Z,80.47
2018-02-09T15:20:18.075Z,85.07
2018-02-09T15:22:46.488Z,86.03
2018-02-09T15:25:14.991Z,95.40
2018-02-09T15:27:43.493Z,85.83
2018-02-09T15:30:11.149Z,82.20
2018-02-09T15:32:40.141Z,89.10
2018-02-09T15:35:07.836Z,90.83
2018-02-09T15:37:35.998Z,86.60
2018-02-09T15:40:03.774Z,85.83
2018-02-09T15:42:31.425Z,90.77
2018-02-09T15:44:59.067Z,91.43
2018-02-09T15:47:26.641Z,85.43
2018-02-09T15:49:54.278Z,84.77
2018-02-09T15:52:22.321Z,110.67
2018-02-09T15:54:50.378Z,88.73
2018-02-09T15:57:18.024Z,98.03
2018-02-09T15:59:46.468Z,108.87
2018-02-09T16:02:14.070Z,95.80
2018-02-09T16:04:41.948Z,99.10
2018-02-09T16:07:09.629Z,103.60
2018-02-09T16:09:37.368Z,106.40
2018-02-09T16:12:05.972Z,114.87
2018-02-09T16:14:33.920Z,120.17
2018-02-09T16:17:02.808Z,114.13
2018-02-09T16:19:30.434Z,110.67
2018-02-09T16:21:58.133Z,109.20
2018-02-09T16:24:27.922Z,117.57
2018-02-09T16:26:55.836Z,105.97
2018-02-09T16:29:23.465Z,114.50
2018-02-09T16:31:52.906Z,110.53
2018-02-09T16:34:21.371Z,111.90
2018-02-09T16:36:51.153Z,113.90
2018-02-09T16:39:18.754Z,109.67
2018-02-09T16:41:46.344Z,104.53
2018-02-09T16:44:13.954Z,105.83
2018-02-09T16:46:47.502Z,104.17
2018-02-09T16:49:15.385Z,104.60
2018-02-09T16:51:43.759Z,104.03
2018-02-09T16:54:11.395Z,124.43
2018-02-09T16:56:39.262Z,106.50
2018-02-09T16:59:06.878Z,103.93
2018-02-09T17:01:34.502Z,113.63
2018-02-09T17:04:02.092Z,117.27
2018-02-09T17:06:29.753Z,105.17
2018-02-09T17:08:57.793Z,110.03
2018-02-09T17:11:26.182Z,113.57
2018-02-09T17:13:53.775Z,108.97
2018-02-09T17:16:22.144Z,95.23
2018-02-09T17:18:50.265Z,105.13
2018-02-09T17:21:18.697Z,106.07
2018-02-09T17:23:46.322Z,98.80
2018-02-09T17:26:14.305Z,95.70
2018-02-09T17:28:41.931Z,94.37
2018-02-09T17:31:09.555Z,95.97
2018-02-09T17:33:37.963Z,86.40
2018-02-09T17:36:05.672Z,92.63
2018-02-09T17:38:33.268Z,87.97
2018-02-09T17:41:00.910Z,95.10
2018-02-09T17:43:28.540Z,88.13
2018-02-09T17:45:56.984Z,90.23
2018-02-09T17:48:26.054Z,86.47
2018-02-09T17:50:53.723Z,91.00
2018-02-09T17:53:22.660Z,91.77
2018-02-09T17:55:50.386Z,84.73
2018-02-09T17:58:17.964Z,86.00
2018-02-09T18:00:46.403Z,84.97
2018-02-09T18:03:14.073Z,89.27
2018-02-09T18:05:41.677Z,83.20
2018-02-09T18:08:09.296Z,82.30
2018-02-09T18:10:38.097Z,84.13
2018-02-09T18:13:06.484Z,90.37
2018-02-09T18:15:34.819Z,67.60
2018-02-09T18:18:02.451Z,82.60
2018-02-09T18:20:30.156Z,69.23
2018-02-09T18:22:57.858Z,76.00
2018-02-09T18:25:25.594Z,79.40
2018-02-09T18:27:53.328Z,68.77
2018-02-09T18:30:21.685Z,68.53
2018-02-09T18:32:49.299Z,63.07
2018-02-09T18:35:18.394Z,68.43
2018-02-09T18:37:46.066Z,70.63
2018-02-09T18:40:13.651Z,65.67
2018-02-09T18:42:41.419Z,67.87
2018-02-09T18:45:08.994Z,56.77
2018-02-09T18:47:36.582Z,59.13
2018-02-09T18:50:04.965Z,55.70
2018-02-09T18:52:33.349Z,66.43
2018-02-09T18:55:00.958Z,58.87
2018-02-09T18:57:28.550Z,57.30
2018-02-09T18:59:56.130Z,53.57
2018-02-09T19:02:23.706Z,62.33
2018-02-09T19:04:51.538Z,66.23
2018-02-09T19:07:19.249Z,67.07
2018-02-09T19:09:46.867Z,58.43
2018-02-09T19:12:15.291Z,51.30
2018-02-09T19:14:42.904Z,59.33
2018-02-09T19:17:11.846Z,56.77
2018-02-09T19:19:40.870Z,56.57
2018-02-09T19:22:08.476Z,56.40
2018-02-09T19:24:36.118Z,58.97
2018-02-09T19:27:03.765Z,57.47
2018-02-09T19:29:32.230Z,65.00
2018-02-09T19:31:59.938Z,52.40
2018-02-09T19:34:29.393Z,56.40
2018-02-09T19:36:57.059Z,56.97
2018-02-09T19:39:24.702Z,59.73
2018-02-09T19:41:53.041Z,55.17
2018-02-09T19:44:20.613Z,56.23
2018-02-09T19:46:48.211Z,62.47
2018-02-09T19:49:15.790Z,59.67
2018-02-09T19:51:43.430Z,50.43
2018-02-09T19:54:11.011Z,58.23
2018-02-09T19:56:38.767Z,53.13
2018-02-09T19:59:06.327Z,59.40
2018-02-09T20:01:33.899Z,54.27
2018-02-09T20:04:01.493Z,56.40
2018-02-09T20:06:29.083Z,51.30
2018-02-09T20:08:56.739Z,55.67
2018-02-09T20:11:24.325Z,54.53
2018-02-09T20:13:51.907Z,57.13
2018-02-09T20:16:19.545Z,48.13
2018-02-09T20:18:47.135Z,52.87
2018-02-09T20:21:14.748Z,58.17
2018-02-09T20:23:42.414Z,54.73
2018-02-09T20:26:10.801Z,61.13
2018-02-09T20:28:38.784Z,65.33
2018-02-09T20:31:06.437Z,77.37
2018-02-09T20:33:34.008Z,90.83
2018-02-09T20:36:01.583Z,104.87
2018-02-09T20:38:29.228Z,127.33
2018-02-09T20:40:56.798Z,80.63
2018-02-09T20:43:24.378Z,66.37
2018-02-09T20:45:51.995Z,58.97
2018-02-09T20:48:19.582Z,58.27
2018-02-09T20:50:47.919Z,62.87
2018-02-09T20:53:15.499Z,55.30
2018-02-09T20:55:43.088Z,64.07
2018-02-09T20:58:10.688Z,62.90
2018-02-09T21:00:39.298Z,60.50
2018-02-09T21:03:07.012Z,65.67
2018-02-09T21:05:34.602Z,60.60
2018-02-09T21:08:02.233Z,63.73
2018-02-09T21:10:29.839Z,68.37
2018-02-09T21:12:57.439Z,66.00
2018-02-09T21:15:25.015Z,67.50
2018-02-09T21:17:52.609Z,66.50
2018-02-09T21:20:20.196Z,64.93
2018-02-09T21:22:47.790Z,60.67
2018-02-09T21:25:15.364Z,67.37
2018-02-09T21:27:42.972Z,58.03
2018-02-09T21:30:10.557Z,72.93
2018-02-09T21:32:39.127Z,66.00
2018-02-09T21:35:06.792Z,71.27
2018-02-09T21:37:34.741Z,67.33
2018-02-09T21:40:02.349Z,70.87
2018-02-09T21:42:29.994Z,65.37
2018-02-09T21:44:57.571Z,69.33
2018-02-09T21:47:25.139Z,78.30
2018-02-09T21:49:52.720Z,71.83
2018-02-09T21:52:20.332Z,72.97
2018-02-09T21:54:47.898Z,81.07
2018-02-09T21:57:16.321Z,72.03
2018-02-09T21:59:43.946Z,84.47
2018-02-09T22:02:11.566Z,73.43
2018-02-09T22:04:39.921Z,73.27
2018-02-09T22:07:07.642Z,84.83
2018-02-09T22:09:35.230Z,73.47
2018-02-09T22:12:02.872Z,80.03
2018-02-09T22:14:31.246Z,79.17
2018-02-09T22:16:59.580Z,76.23
2018-02-09T22:19:27.202Z,81.97
2018-02-09T22:21:54.795Z,75.67
2018-02-09T22:24:22.434Z,79.63
2018-02-09T22:26:50.055Z,77.70
2018-02-09T22:29:17.676Z,84.17
2018-02-09T22:31:45.261Z,77.23
2018-02-09T22:34:12.869Z,78.17
2018-02-09T22:36:40.634Z,80.60
2018-02-09T22:39:08.995Z,84.53
2018-02-09T22:41:37.570Z,78.87
2018-02-09T22:44:05.198Z,84.97
2018-02-09T22:46:33.577Z,80.30
2018-02-09T22:49:02.116Z,78.20
2018-02-09T22:51:29.727Z,75.67
2018-02-09T22:53:57.324Z,73.43
2018-02-09T22:56:25.675Z,82.40
2018-02-09T22:58:53.264Z,84.03
2018-02-09T23:01:20.892Z,80.90
2018-02-09T23:03:48.480Z,83.33
2018-02-09T23:06:16.106Z,80.63
2018-02-09T23:08:43.712Z,85.13
2018-02-09T23:11:11.297Z,84.97
2018-02-09T23:13:39.119Z,78.60
2018-02-09T23:16:06.708Z,78.40
2018-02-09T23:18:35.039Z,81.40
2018-02-09T23:21:02.645Z,80.97
2018-02-09T23:23:30.283Z,80.43
2018-02-09T23:25:57.860Z,77.40
2018-02-09T23:28:25.431Z,83.87
2018-02-09T23:30:53.515Z,81.70
2018-02-09T23:33:21.127Z,88.37
2018-02-09T23:35:49.503Z,73.43
2018-02-09T23:38:17.110Z,85.70
2018-02-09T23:40:45.523Z,79.87
2018-02-09T23:43:13.130Z,73.20
2018-02-09T23:45:40.735Z,92.50
2018-02-09T23:48:08.302Z,76.37
2018-02-09T23:50:36.678Z,81.23
2018-02-09T23:53:04.330Z,79.97
2018-02-09T23:55:31.935Z,83.93
2018-02-09T23:57:59.524Z,85.30
